sensor_id;sensor_type;location;lat;lon;timestamp;P1;durP1;ratioP1;P2;durP2;ratioP2
71513;SDS011;59335;46.652;21.272;2023-08-07T00:00:04;2.47;;;1.20;;
71513;SDS011;59335;46.652;21.272;2023-08-07T00:03:10;5.20;;;1.30;;
71513;SDS011;59335;46.652;21.272;2023-08-07T00:06:13;2.25;;;1.00;;
71513;SDS011;59335;46.652;21.272;2023-08-07T00:09:16;2.25;;;1.40;;
71513;SDS011;59335;46.652;21.272;2023-08-07T00:12:19;2.10;;;1.17;;
71513;SDS011;59335;46.652;21.272;2023-08-07T00:15:21;1.73;;;1.10;;
71513;SDS011;59335;46.652;21.272;2023-08-07T00:18:24;2.08;;;1.00;;
71513;SDS011;59335;46.652;21.272;2023-08-07T00:21:27;1.90;;;1.20;;
71513;SDS011;59335;46.652;21.272;2023-08-07T00:24:30;1.98;;;1.10;;
71513;SDS011;59335;46.652;21.272;2023-08-07T00:27:32;1.92;;;1.00;;
71513;SDS011;59335;46.652;21.272;2023-08-07T00:30:35;1.73;;;1.00;;
71513;SDS011;59335;46.652;21.272;2023-08-07T00:33:38;2.90;;;1.10;;
71513;SDS011;59335;46.652;21.272;2023-08-07T00:36:42;2.00;;;1.20;;
71513;SDS011;59335;46.652;21.272;2023-08-07T00:39:45;2.40;;;1.10;;
71513;SDS011;59335;46.652;21.272;2023-08-07T00:42:48;2.15;;;1.00;;
71513;SDS011;59335;46.652;21.272;2023-08-07T00:45:50;1.97;;;1.10;;
71513;SDS011;59335;46.652;21.272;2023-08-07T00:48:53;1.38;;;1.00;;
71513;SDS011;59335;46.652;21.272;2023-08-07T00:51:56;2.00;;;1.23;;
71513;SDS011;59335;46.652;21.272;2023-08-07T00:54:59;2.22;;;1.23;;
71513;SDS011;59335;46.652;21.272;2023-08-07T00:58:02;1.80;;;1.05;;
71513;SDS011;59335;46.652;21.272;2023-08-07T01:01:05;1.87;;;1.10;;
71513;SDS011;59335;46.652;21.272;2023-08-07T01:04:08;1.58;;;1.05;;
71513;SDS011;59335;46.652;21.272;2023-08-07T01:07:10;2.28;;;1.20;;
71513;SDS011;59335;46.652;21.272;2023-08-07T01:10:13;2.13;;;1.13;;
71513;SDS011;59335;46.652;21.272;2023-08-07T01:13:23;1.40;;;0.80;;
71513;SDS011;59335;46.652;21.272;2023-08-07T01:16:35;2.00;;;1.00;;
71513;SDS011;59335;46.652;21.272;2023-08-07T01:19:52;1.35;;;1.02;;
71513;SDS011;59335;46.652;21.272;2023-08-07T01:22:55;1.92;;;0.93;;
71513;SDS011;59335;46.652;21.272;2023-08-07T01:25:58;2.05;;;1.00;;
71513;SDS011;59335;46.652;21.272;2023-08-07T01:29:12;1.30;;;0.98;;
71513;SDS011;59335;46.652;21.272;2023-08-07T01:32:26;1.30;;;0.83;;
71513;SDS011;59335;46.652;21.272;2023-08-07T01:35:44;2.55;;;0.80;;
71513;SDS011;59335;46.652;21.272;2023-08-07T01:38:51;1.65;;;1.00;;
71513;SDS011;59335;46.652;21.272;2023-08-07T01:41:55;1.55;;;0.90;;
71513;SDS011;59335;46.652;21.272;2023-08-07T01:44:58;1.58;;;0.90;;
71513;SDS011;59335;46.652;21.272;2023-08-07T01:48:01;1.23;;;0.90;;
71513;SDS011;59335;46.652;21.272;2023-08-07T01:51:04;1.27;;;0.90;;
71513;SDS011;59335;46.652;21.272;2023-08-07T01:54:07;2.55;;;1.00;;
71513;SDS011;59335;46.652;21.272;2023-08-07T01:57:09;1.00;;;0.70;;
71513;SDS011;59335;46.652;21.272;2023-08-07T02:00:12;2.40;;;0.98;;
71513;SDS011;59335;46.652;21.272;2023-08-07T02:03:18;1.33;;;0.90;;
71513;SDS011;59335;46.652;21.272;2023-08-07T02:06:21;1.65;;;1.05;;
71513;SDS011;59335;46.652;21.272;2023-08-07T02:09:25;1.30;;;0.90;;
71513;SDS011;59335;46.652;21.272;2023-08-07T02:12:27;1.63;;;0.88;;
71513;SDS011;59335;46.652;21.272;2023-08-07T02:15:33;1.27;;;1.05;;
71513;SDS011;59335;46.652;21.272;2023-08-07T02:18:36;1.40;;;0.80;;
71513;SDS011;59335;46.652;21.272;2023-08-07T02:21:39;1.63;;;0.80;;
71513;SDS011;59335;46.652;21.272;2023-08-07T02:24:42;1.30;;;0.77;;
71513;SDS011;59335;46.652;21.272;2023-08-07T02:27:44;2.75;;;1.15;;
71513;SDS011;59335;46.652;21.272;2023-08-07T02:30:47;1.48;;;0.90;;
71513;SDS011;59335;46.652;21.272;2023-08-07T02:33:51;1.27;;;0.80;;
71513;SDS011;59335;46.652;21.272;2023-08-07T02:36:53;2.13;;;1.00;;
71513;SDS011;59335;46.652;21.272;2023-08-07T02:39:56;2.45;;;1.00;;
71513;SDS011;59335;46.652;21.272;2023-08-07T02:42:59;1.67;;;0.80;;
71513;SDS011;59335;46.652;21.272;2023-08-07T02:46:01;1.50;;;0.80;;
71513;SDS011;59335;46.652;21.272;2023-08-07T02:49:04;2.13;;;0.90;;
71513;SDS011;59335;46.652;21.272;2023-08-07T02:52:07;1.20;;;0.80;;
71513;SDS011;59335;46.652;21.272;2023-08-07T02:55:09;3.28;;;0.80;;
71513;SDS011;59335;46.652;21.272;2023-08-07T02:58:12;1.10;;;0.82;;
71513;SDS011;59335;46.652;21.272;2023-08-07T03:01:15;1.05;;;0.90;;
71513;SDS011;59335;46.652;21.272;2023-08-07T03:04:17;2.60;;;0.80;;
71513;SDS011;59335;46.652;21.272;2023-08-07T03:07:20;2.13;;;0.82;;
71513;SDS011;59335;46.652;21.272;2023-08-07T03:10:23;1.05;;;0.90;;
71513;SDS011;59335;46.652;21.272;2023-08-07T03:13:28;0.95;;;0.70;;
71513;SDS011;59335;46.652;21.272;2023-08-07T03:16:30;1.15;;;0.70;;
71513;SDS011;59335;46.652;21.272;2023-08-07T03:19:33;0.80;;;0.70;;
71513;SDS011;59335;46.652;21.272;2023-08-07T03:22:35;1.67;;;0.90;;
71513;SDS011;59335;46.652;21.272;2023-08-07T03:25:39;1.40;;;0.93;;
71513;SDS011;59335;46.652;21.272;2023-08-07T03:28:41;1.20;;;0.75;;
71513;SDS011;59335;46.652;21.272;2023-08-07T03:31:44;1.30;;;0.80;;
71513;SDS011;59335;46.652;21.272;2023-08-07T03:34:47;1.97;;;0.90;;
71513;SDS011;59335;46.652;21.272;2023-08-07T03:37:50;1.00;;;0.80;;
71513;SDS011;59335;46.652;21.272;2023-08-07T03:40:53;1.95;;;0.70;;
71513;SDS011;59335;46.652;21.272;2023-08-07T03:43:55;2.28;;;0.70;;
71513;SDS011;59335;46.652;21.272;2023-08-07T03:46:58;1.20;;;0.75;;
71513;SDS011;59335;46.652;21.272;2023-08-07T03:50:01;0.70;;;0.60;;
71513;SDS011;59335;46.652;21.272;2023-08-07T03:53:06;1.50;;;0.70;;
71513;SDS011;59335;46.652;21.272;2023-08-07T03:56:14;1.70;;;0.80;;
71513;SDS011;59335;46.652;21.272;2023-08-07T03:59:17;1.70;;;0.70;;
71513;SDS011;59335;46.652;21.272;2023-08-07T04:02:20;1.48;;;0.70;;
71513;SDS011;59335;46.652;21.272;2023-08-07T04:05:23;2.27;;;0.80;;
71513;SDS011;59335;46.652;21.272;2023-08-07T04:08:26;1.05;;;0.75;;
71513;SDS011;59335;46.652;21.272;2023-08-07T04:11:28;2.00;;;0.80;;
71513;SDS011;59335;46.652;21.272;2023-08-07T04:14:31;0.98;;;0.70;;
71513;SDS011;59335;46.652;21.272;2023-08-07T04:17:34;1.20;;;0.60;;
71513;SDS011;59335;46.652;21.272;2023-08-07T04:20:37;1.17;;;0.70;;
71513;SDS011;59335;46.652;21.272;2023-08-07T04:23:40;0.88;;;0.73;;
71513;SDS011;59335;46.652;21.272;2023-08-07T04:26:44;1.17;;;0.80;;
71513;SDS011;59335;46.652;21.272;2023-08-07T04:29:47;1.98;;;0.73;;
71513;SDS011;59335;46.652;21.272;2023-08-07T04:32:49;0.80;;;0.65;;
71513;SDS011;59335;46.652;21.272;2023-08-07T04:35:52;1.70;;;0.73;;
71513;SDS011;59335;46.652;21.272;2023-08-07T04:38:55;1.00;;;0.60;;
71513;SDS011;59335;46.652;21.272;2023-08-07T04:41:57;2.28;;;1.15;;
71513;SDS011;59335;46.652;21.272;2023-08-07T04:45:00;2.45;;;0.80;;
71513;SDS011;59335;46.652;21.272;2023-08-07T04:48:03;0.93;;;0.60;;
71513;SDS011;59335;46.652;21.272;2023-08-07T04:51:06;1.60;;;0.70;;
71513;SDS011;59335;46.652;21.272;2023-08-07T04:54:09;1.17;;;0.60;;
71513;SDS011;59335;46.652;21.272;2023-08-07T04:57:11;1.75;;;0.80;;
71513;SDS011;59335;46.652;21.272;2023-08-07T05:00:14;3.05;;;0.70;;
71513;SDS011;59335;46.652;21.272;2023-08-07T05:03:17;1.38;;;0.77;;
71513;SDS011;59335;46.652;21.272;2023-08-07T05:06:21;0.90;;;0.60;;
71513;SDS011;59335;46.652;21.272;2023-08-07T05:09:23;1.25;;;0.70;;
71513;SDS011;59335;46.652;21.272;2023-08-07T05:12:26;1.30;;;0.60;;
71513;SDS011;59335;46.652;21.272;2023-08-07T05:15:29;2.35;;;0.73;;
71513;SDS011;59335;46.652;21.272;2023-08-07T05:18:33;2.15;;;0.77;;
71513;SDS011;59335;46.652;21.272;2023-08-07T05:21:35;1.57;;;0.70;;
71513;SDS011;59335;46.652;21.272;2023-08-07T05:24:38;1.30;;;0.80;;
71513;SDS011;59335;46.652;21.272;2023-08-07T05:27:42;1.05;;;0.80;;
71513;SDS011;59335;46.652;21.272;2023-08-07T05:30:45;1.58;;;0.80;;
71513;SDS011;59335;46.652;21.272;2023-08-07T05:33:48;1.58;;;0.82;;
71513;SDS011;59335;46.652;21.272;2023-08-07T05:36:50;1.33;;;0.80;;
71513;SDS011;59335;46.652;21.272;2023-08-07T05:39:54;1.52;;;0.60;;
71513;SDS011;59335;46.652;21.272;2023-08-07T05:42:56;1.33;;;0.70;;
71513;SDS011;59335;46.652;21.272;2023-08-07T05:45:59;1.90;;;0.80;;
71513;SDS011;59335;46.652;21.272;2023-08-07T05:49:02;1.65;;;0.70;;
71513;SDS011;59335;46.652;21.272;2023-08-07T05:52:05;0.93;;;0.70;;
71513;SDS011;59335;46.652;21.272;2023-08-07T05:55:08;1.08;;;0.70;;
71513;SDS011;59335;46.652;21.272;2023-08-07T05:58:11;1.77;;;0.60;;
71513;SDS011;59335;46.652;21.272;2023-08-07T06:01:13;1.27;;;0.65;;
71513;SDS011;59335;46.652;21.272;2023-08-07T06:04:19;2.05;;;0.80;;
71513;SDS011;59335;46.652;21.272;2023-08-07T06:07:23;2.13;;;0.87;;
71513;SDS011;59335;46.652;21.272;2023-08-07T06:10:26;1.83;;;0.63;;
71513;SDS011;59335;46.652;21.272;2023-08-07T06:13:29;1.73;;;0.77;;
71513;SDS011;59335;46.652;21.272;2023-08-07T06:16:37;1.52;;;0.70;;
71513;SDS011;59335;46.652;21.272;2023-08-07T06:19:40;1.40;;;0.60;;
71513;SDS011;59335;46.652;21.272;2023-08-07T06:22:42;1.97;;;0.77;;
71513;SDS011;59335;46.652;21.272;2023-08-07T06:25:45;0.88;;;0.60;;
71513;SDS011;59335;46.652;21.272;2023-08-07T06:28:48;2.45;;;0.90;;
71513;SDS011;59335;46.652;21.272;2023-08-07T06:31:50;2.22;;;0.60;;
71513;SDS011;59335;46.652;21.272;2023-08-07T06:34:53;2.30;;;0.70;;
71513;SDS011;59335;46.652;21.272;2023-08-07T06:37:56;1.47;;;0.60;;
71513;SDS011;59335;46.652;21.272;2023-08-07T06:40:59;1.05;;;0.60;;
71513;SDS011;59335;46.652;21.272;2023-08-07T06:44:01;3.63;;;0.70;;
71513;SDS011;59335;46.652;21.272;2023-08-07T06:47:04;2.67;;;0.80;;
71513;SDS011;59335;46.652;21.272;2023-08-07T06:50:06;1.83;;;0.68;;
71513;SDS011;59335;46.652;21.272;2023-08-07T06:53:10;2.00;;;0.77;;
71513;SDS011;59335;46.652;21.272;2023-08-07T06:56:13;1.33;;;0.70;;
71513;SDS011;59335;46.652;21.272;2023-08-07T06:59:16;2.65;;;0.98;;
71513;SDS011;59335;46.652;21.272;2023-08-07T07:02:18;0.70;;;0.50;;
71513;SDS011;59335;46.652;21.272;2023-08-07T07:05:22;1.30;;;0.82;;
71513;SDS011;59335;46.652;21.272;2023-08-07T07:08:25;2.00;;;0.63;;
71513;SDS011;59335;46.652;21.272;2023-08-07T07:11:28;2.08;;;0.80;;
71513;SDS011;59335;46.652;21.272;2023-08-07T07:14:32;1.73;;;0.80;;
71513;SDS011;59335;46.652;21.272;2023-08-07T07:17:35;1.08;;;0.60;;
71513;SDS011;59335;46.652;21.272;2023-08-07T07:20:37;1.40;;;0.65;;
71513;SDS011;59335;46.652;21.272;2023-08-07T07:23:40;1.23;;;0.67;;
71513;SDS011;59335;46.652;21.272;2023-08-07T07:26:42;0.70;;;0.68;;
71513;SDS011;59335;46.652;21.272;2023-08-07T07:29:45;0.82;;;0.70;;
71513;SDS011;59335;46.652;21.272;2023-08-07T07:32:49;0.85;;;0.43;;
71513;SDS011;59335;46.652;21.272;2023-08-07T07:35:52;1.75;;;0.68;;
71513;SDS011;59335;46.652;21.272;2023-08-07T07:38:55;1.27;;;0.60;;
71513;SDS011;59335;46.652;21.272;2023-08-07T07:41:58;2.15;;;0.73;;
71513;SDS011;59335;46.652;21.272;2023-08-07T07:45:00;1.23;;;0.60;;
71513;SDS011;59335;46.652;21.272;2023-08-07T07:48:03;0.77;;;0.68;;
71513;SDS011;59335;46.652;21.272;2023-08-07T07:51:06;1.25;;;0.70;;
71513;SDS011;59335;46.652;21.272;2023-08-07T07:54:09;1.07;;;0.63;;
71513;SDS011;59335;46.652;21.272;2023-08-07T07:57:16;1.13;;;0.60;;
71513;SDS011;59335;46.652;21.272;2023-08-07T08:00:20;1.70;;;0.70;;
71513;SDS011;59335;46.652;21.272;2023-08-07T08:03:24;1.05;;;0.60;;
71513;SDS011;59335;46.652;21.272;2023-08-07T08:06:27;1.17;;;0.70;;
71513;SDS011;59335;46.652;21.272;2023-08-07T08:09:32;1.17;;;0.60;;
71513;SDS011;59335;46.652;21.272;2023-08-07T08:12:36;1.63;;;0.70;;
71513;SDS011;59335;46.652;21.272;2023-08-07T08:15:39;1.00;;;0.60;;
71513;SDS011;59335;46.652;21.272;2023-08-07T08:18:42;0.85;;;0.70;;
71513;SDS011;59335;46.652;21.272;2023-08-07T08:21:45;1.20;;;0.60;;
71513;SDS011;59335;46.652;21.272;2023-08-07T08:24:49;2.47;;;0.90;;
71513;SDS011;59335;46.652;21.272;2023-08-07T08:27:53;5.10;;;0.77;;
71513;SDS011;59335;46.652;21.272;2023-08-07T08:30:55;2.80;;;0.80;;
71513;SDS011;59335;46.652;21.272;2023-08-07T08:33:59;2.03;;;0.60;;
71513;SDS011;59335;46.652;21.272;2023-08-07T08:37:05;3.08;;;0.80;;
71513;SDS011;59335;46.652;21.272;2023-08-07T08:40:09;5.77;;;0.90;;
71513;SDS011;59335;46.652;21.272;2023-08-07T08:43:14;13.07;;;1.52;;
71513;SDS011;59335;46.652;21.272;2023-08-07T08:46:17;8.73;;;1.20;;
71513;SDS011;59335;46.652;21.272;2023-08-07T08:49:26;8.43;;;1.10;;
71513;SDS011;59335;46.652;21.272;2023-08-07T08:52:33;11.93;;;1.00;;
71513;SDS011;59335;46.652;21.272;2023-08-07T08:55:37;10.87;;;1.10;;
71513;SDS011;59335;46.652;21.272;2023-08-07T08:58:40;8.80;;;1.20;;
71513;SDS011;59335;46.652;21.272;2023-08-07T09:01:45;9.32;;;1.02;;
71513;SDS011;59335;46.652;21.272;2023-08-07T09:04:49;8.63;;;1.27;;
71513;SDS011;59335;46.652;21.272;2023-08-07T09:07:51;8.63;;;1.25;;
71513;SDS011;59335;46.652;21.272;2023-08-07T09:10:54;6.70;;;1.20;;
71513;SDS011;59335;46.652;21.272;2023-08-07T09:13:57;7.72;;;1.27;;
71513;SDS011;59335;46.652;21.272;2023-08-07T09:17:03;8.20;;;1.25;;
71513;SDS011;59335;46.652;21.272;2023-08-07T09:20:07;6.47;;;0.90;;
71513;SDS011;59335;46.652;21.272;2023-08-07T09:23:17;7.40;;;1.00;;
71513;SDS011;59335;46.652;21.272;2023-08-07T09:26:22;8.60;;;1.13;;
71513;SDS011;59335;46.652;21.272;2023-08-07T09:29:27;5.90;;;0.90;;
71513;SDS011;59335;46.652;21.272;2023-08-07T09:32:30;5.97;;;0.90;;
71513;SDS011;59335;46.652;21.272;2023-08-07T09:35:36;5.22;;;0.80;;
71513;SDS011;59335;46.652;21.272;2023-08-07T09:38:39;4.55;;;0.80;;
71513;SDS011;59335;46.652;21.272;2023-08-07T09:41:42;5.17;;;0.87;;
71513;SDS011;59335;46.652;21.272;2023-08-07T09:44:44;4.38;;;0.98;;
71513;SDS011;59335;46.652;21.272;2023-08-07T09:48:07;6.38;;;1.00;;
71513;SDS011;59335;46.652;21.272;2023-08-07T09:51:10;4.88;;;0.80;;
71513;SDS011;59335;46.652;21.272;2023-08-07T09:54:15;7.43;;;0.90;;
71513;SDS011;59335;46.652;21.272;2023-08-07T09:57:18;10.60;;;1.00;;
71513;SDS011;59335;46.652;21.272;2023-08-07T10:00:22;6.00;;;0.77;;
71513;SDS011;59335;46.652;21.272;2023-08-07T10:03:25;7.28;;;0.82;;
71513;SDS011;59335;46.652;21.272;2023-08-07T10:06:28;3.90;;;0.82;;
71513;SDS011;59335;46.652;21.272;2023-08-07T10:09:32;4.30;;;0.73;;
71513;SDS011;59335;46.652;21.272;2023-08-07T10:12:36;4.67;;;1.00;;
71513;SDS011;59335;46.652;21.272;2023-08-07T10:15:40;2.50;;;0.85;;
71513;SDS011;59335;46.652;21.272;2023-08-07T10:18:46;6.82;;;0.90;;
71513;SDS011;59335;46.652;21.272;2023-08-07T10:21:48;3.75;;;0.73;;
71513;SDS011;59335;46.652;21.272;2023-08-07T10:24:53;3.78;;;0.80;;
71513;SDS011;59335;46.652;21.272;2023-08-07T10:28:00;4.73;;;0.77;;
71513;SDS011;59335;46.652;21.272;2023-08-07T10:31:05;8.20;;;0.75;;
71513;SDS011;59335;46.652;21.272;2023-08-07T10:34:11;5.88;;;0.73;;
71513;SDS011;59335;46.652;21.272;2023-08-07T10:44:02;2.70;;;0.70;;
71513;SDS011;59335;46.652;21.272;2023-08-07T10:47:06;3.40;;;0.70;;
71513;SDS011;59335;46.652;21.272;2023-08-07T10:50:11;3.22;;;1.20;;
71513;SDS011;59335;46.652;21.272;2023-08-07T10:53:30;3.33;;;0.70;;
71513;SDS011;59335;46.652;21.272;2023-08-07T10:56:35;2.72;;;0.70;;
71513;SDS011;59335;46.652;21.272;2023-08-07T10:59:49;2.10;;;0.77;;
71513;SDS011;59335;46.652;21.272;2023-08-07T11:02:53;1.80;;;0.60;;
71513;SDS011;59335;46.652;21.272;2023-08-07T11:05:57;2.92;;;0.80;;
71513;SDS011;59335;46.652;21.272;2023-08-07T11:09:01;1.92;;;0.60;;
71513;SDS011;59335;46.652;21.272;2023-08-07T11:12:07;3.25;;;0.80;;
71513;SDS011;59335;46.652;21.272;2023-08-07T11:15:13;2.27;;;0.80;;
71513;SDS011;59335;46.652;21.272;2023-08-07T11:18:16;2.72;;;0.70;;
71513;SDS011;59335;46.652;21.272;2023-08-07T11:21:19;4.45;;;0.90;;
71513;SDS011;59335;46.652;21.272;2023-08-07T11:24:22;4.10;;;0.70;;
71513;SDS011;59335;46.652;21.272;2023-08-07T11:27:25;4.57;;;0.80;;
71513;SDS011;59335;46.652;21.272;2023-08-07T11:30:27;0.87;;;0.50;;
71513;SDS011;59335;46.652;21.272;2023-08-07T11:33:30;1.80;;;0.60;;
71513;SDS011;59335;46.652;21.272;2023-08-07T11:36:33;2.03;;;0.70;;
71513;SDS011;59335;46.652;21.272;2023-08-07T11:39:43;2.35;;;1.00;;
71513;SDS011;59335;46.652;21.272;2023-08-07T11:42:46;4.65;;;1.00;;
71513;SDS011;59335;46.652;21.272;2023-08-07T11:45:49;2.10;;;0.60;;
71513;SDS011;59335;46.652;21.272;2023-08-07T11:48:52;3.08;;;0.73;;
71513;SDS011;59335;46.652;21.272;2023-08-07T11:51:57;2.75;;;0.98;;
71513;SDS011;59335;46.652;21.272;2023-08-07T11:55:01;1.08;;;0.60;;
71513;SDS011;59335;46.652;21.272;2023-08-07T11:58:06;2.13;;;1.10;;
71513;SDS011;59335;46.652;21.272;2023-08-07T12:01:10;4.87;;;0.87;;
71513;SDS011;59335;46.652;21.272;2023-08-07T12:04:13;5.03;;;0.80;;
71513;SDS011;59335;46.652;21.272;2023-08-07T12:07:19;2.05;;;0.70;;
71513;SDS011;59335;46.652;21.272;2023-08-07T12:10:30;1.67;;;0.60;;
71513;SDS011;59335;46.652;21.272;2023-08-07T12:13:33;2.83;;;0.85;;
71513;SDS011;59335;46.652;21.272;2023-08-07T12:16:37;2.17;;;0.60;;
71513;SDS011;59335;46.652;21.272;2023-08-07T12:19:40;1.95;;;0.70;;
71513;SDS011;59335;46.652;21.272;2023-08-07T12:22:46;1.65;;;0.70;;
71513;SDS011;59335;46.652;21.272;2023-08-07T12:25:49;2.45;;;0.60;;
71513;SDS011;59335;46.652;21.272;2023-08-07T12:28:52;2.08;;;0.82;;
71513;SDS011;59335;46.652;21.272;2023-08-07T12:31:55;2.00;;;0.70;;
71513;SDS011;59335;46.652;21.272;2023-08-07T12:35:01;3.40;;;0.90;;
71513;SDS011;59335;46.652;21.272;2023-08-07T12:38:07;2.03;;;0.70;;
71513;SDS011;59335;46.652;21.272;2023-08-07T12:41:11;2.25;;;0.80;;
71513;SDS011;59335;46.652;21.272;2023-08-07T12:44:17;1.88;;;0.70;;
71513;SDS011;59335;46.652;21.272;2023-08-07T12:47:19;1.33;;;0.50;;
71513;SDS011;59335;46.652;21.272;2023-08-07T12:50:22;1.00;;;0.65;;
71513;SDS011;59335;46.652;21.272;2023-08-07T12:53:24;2.22;;;1.08;;
71513;SDS011;59335;46.652;21.272;2023-08-07T12:56:27;1.85;;;0.60;;
71513;SDS011;59335;46.652;21.272;2023-08-07T12:59:30;3.90;;;1.00;;
71513;SDS011;59335;46.652;21.272;2023-08-07T13:02:32;2.50;;;0.70;;
71513;SDS011;59335;46.652;21.272;2023-08-07T13:05:35;2.88;;;0.60;;
71513;SDS011;59335;46.652;21.272;2023-08-07T13:08:39;1.40;;;0.70;;
71513;SDS011;59335;46.652;21.272;2023-08-07T13:11:43;2.00;;;0.60;;
71513;SDS011;59335;46.652;21.272;2023-08-07T13:14:45;1.73;;;0.70;;
71513;SDS011;59335;46.652;21.272;2023-08-07T13:17:48;2.37;;;0.70;;
71513;SDS011;59335;46.652;21.272;2023-08-07T13:20:51;2.42;;;0.60;;
71513;SDS011;59335;46.652;21.272;2023-08-07T13:23:53;1.70;;;0.50;;
71513;SDS011;59335;46.652;21.272;2023-08-07T13:26:57;0.93;;;0.60;;
71513;SDS011;59335;46.652;21.272;2023-08-07T13:30:00;1.25;;;0.60;;
71513;SDS011;59335;46.652;21.272;2023-08-07T13:33:04;2.20;;;0.57;;
71513;SDS011;59335;46.652;21.272;2023-08-07T13:36:06;0.93;;;0.50;;
71513;SDS011;59335;46.652;21.272;2023-08-07T13:39:09;0.98;;;0.65;;
71513;SDS011;59335;46.652;21.272;2023-08-07T13:42:14;0.52;;;0.50;;
71513;SDS011;59335;46.652;21.272;2023-08-07T13:45:17;1.38;;;0.60;;
71513;SDS011;59335;46.652;21.272;2023-08-07T13:48:20;1.17;;;0.47;;
71513;SDS011;59335;46.652;21.272;2023-08-07T13:51:24;1.00;;;0.60;;
71513;SDS011;59335;46.652;21.272;2023-08-07T13:54:28;1.38;;;0.50;;
71513;SDS011;59335;46.652;21.272;2023-08-07T13:57:31;1.92;;;0.60;;
71513;SDS011;59335;46.652;21.272;2023-08-07T14:00:35;1.08;;;0.77;;
71513;SDS011;59335;46.652;21.272;2023-08-07T14:03:39;1.50;;;0.60;;
71513;SDS011;59335;46.652;21.272;2023-08-07T14:06:42;1.38;;;0.60;;
71513;SDS011;59335;46.652;21.272;2023-08-07T14:09:45;1.23;;;0.73;;
71513;SDS011;59335;46.652;21.272;2023-08-07T14:12:48;2.85;;;1.00;;
71513;SDS011;59335;46.652;21.272;2023-08-07T14:15:52;1.08;;;0.80;;
71513;SDS011;59335;46.652;21.272;2023-08-07T14:18:55;1.73;;;0.80;;
71513;SDS011;59335;46.652;21.272;2023-08-07T14:21:57;2.38;;;0.55;;
71513;SDS011;59335;46.652;21.272;2023-08-07T14:25:00;1.00;;;0.63;;
71513;SDS011;59335;46.652;21.272;2023-08-07T14:28:04;1.30;;;0.55;;
71513;SDS011;59335;46.652;21.272;2023-08-07T14:31:09;2.20;;;0.88;;
71513;SDS011;59335;46.652;21.272;2023-08-07T14:34:12;1.10;;;0.60;;
71513;SDS011;59335;46.652;21.272;2023-08-07T14:37:15;1.17;;;0.60;;
71513;SDS011;59335;46.652;21.272;2023-08-07T14:40:18;1.05;;;0.60;;
71513;SDS011;59335;46.652;21.272;2023-08-07T14:43:20;1.65;;;0.70;;
71513;SDS011;59335;46.652;21.272;2023-08-07T14:46:23;1.83;;;0.52;;
71513;SDS011;59335;46.652;21.272;2023-08-07T14:49:26;0.70;;;0.60;;
71513;SDS011;59335;46.652;21.272;2023-08-07T14:52:29;1.25;;;0.60;;
71513;SDS011;59335;46.652;21.272;2023-08-07T14:55:32;0.80;;;0.68;;
71513;SDS011;59335;46.652;21.272;2023-08-07T14:58:34;1.13;;;0.80;;
71513;SDS011;59335;46.652;21.272;2023-08-07T15:01:37;2.28;;;0.68;;
71513;SDS011;59335;46.652;21.272;2023-08-07T15:04:39;1.10;;;0.67;;
71513;SDS011;59335;46.652;21.272;2023-08-07T15:07:42;1.40;;;0.77;;
71513;SDS011;59335;46.652;21.272;2023-08-07T15:10:45;2.25;;;0.90;;
71513;SDS011;59335;46.652;21.272;2023-08-07T15:13:47;1.02;;;0.57;;
71513;SDS011;59335;46.652;21.272;2023-08-07T15:16:50;2.15;;;0.80;;
71513;SDS011;59335;46.652;21.272;2023-08-07T15:19:53;1.43;;;0.53;;
71513;SDS011;59335;46.652;21.272;2023-08-07T15:22:56;1.50;;;0.52;;
71513;SDS011;59335;46.652;21.272;2023-08-07T15:25:58;0.70;;;0.60;;
71513;SDS011;59335;46.652;21.272;2023-08-07T15:29:03;1.58;;;0.70;;
71513;SDS011;59335;46.652;21.272;2023-08-07T15:32:07;1.45;;;0.70;;
71513;SDS011;59335;46.652;21.272;2023-08-07T15:35:10;1.50;;;0.60;;
71513;SDS011;59335;46.652;21.272;2023-08-07T15:38:13;0.60;;;0.47;;
71513;SDS011;59335;46.652;21.272;2023-08-07T15:41:16;0.70;;;0.50;;
71513;SDS011;59335;46.652;21.272;2023-08-07T15:44:20;2.92;;;0.60;;
71513;SDS011;59335;46.652;21.272;2023-08-07T15:47:23;1.48;;;0.70;;
71513;SDS011;59335;46.652;21.272;2023-08-07T15:50:26;2.40;;;0.50;;
71513;SDS011;59335;46.652;21.272;2023-08-07T15:53:29;1.00;;;0.68;;
71513;SDS011;59335;46.652;21.272;2023-08-07T15:56:32;1.70;;;0.65;;
71513;SDS011;59335;46.652;21.272;2023-08-07T15:59:35;1.30;;;0.50;;
71513;SDS011;59335;46.652;21.272;2023-08-07T16:02:37;0.82;;;0.80;;
71513;SDS011;59335;46.652;21.272;2023-08-07T16:05:40;1.00;;;0.67;;
71513;SDS011;59335;46.652;21.272;2023-08-07T16:08:43;1.63;;;0.50;;
71513;SDS011;59335;46.652;21.272;2023-08-07T16:11:47;0.93;;;0.63;;
71513;SDS011;59335;46.652;21.272;2023-08-07T16:14:50;0.90;;;0.70;;
71513;SDS011;59335;46.652;21.272;2023-08-07T16:17:53;0.50;;;0.50;;
71513;SDS011;59335;46.652;21.272;2023-08-07T16:20:56;0.90;;;0.50;;
71513;SDS011;59335;46.652;21.272;2023-08-07T16:23:59;0.73;;;0.60;;
71513;SDS011;59335;46.652;21.272;2023-08-07T16:27:01;1.00;;;0.63;;
71513;SDS011;59335;46.652;21.272;2023-08-07T16:30:05;0.80;;;0.80;;
71513;SDS011;59335;46.652;21.272;2023-08-07T16:33:08;0.98;;;0.60;;
71513;SDS011;59335;46.652;21.272;2023-08-07T16:36:12;1.00;;;0.60;;
71513;SDS011;59335;46.652;21.272;2023-08-07T16:39:15;1.40;;;0.60;;
71513;SDS011;59335;46.652;21.272;2023-08-07T16:42:18;1.25;;;0.70;;
71513;SDS011;59335;46.652;21.272;2023-08-07T16:45:22;2.58;;;0.82;;
71513;SDS011;59335;46.652;21.272;2023-08-07T16:48:27;0.73;;;0.63;;
71513;SDS011;59335;46.652;21.272;2023-08-07T16:51:30;0.97;;;0.50;;
71513;SDS011;59335;46.652;21.272;2023-08-07T16:54:35;1.20;;;0.52;;
71513;SDS011;59335;46.652;21.272;2023-08-07T16:57:38;0.80;;;0.60;;
71513;SDS011;59335;46.652;21.272;2023-08-07T17:00:41;0.82;;;0.57;;
71513;SDS011;59335;46.652;21.272;2023-08-07T17:03:44;0.90;;;0.57;;
71513;SDS011;59335;46.652;21.272;2023-08-07T17:06:47;0.60;;;0.50;;
71513;SDS011;59335;46.652;21.272;2023-08-07T17:09:50;0.60;;;0.40;;
71513;SDS011;59335;46.652;21.272;2023-08-07T17:12:53;0.63;;;0.60;;
71513;SDS011;59335;46.652;21.272;2023-08-07T17:15:58;1.23;;;0.70;;
71513;SDS011;59335;46.652;21.272;2023-08-07T17:19:02;0.68;;;0.57;;
71513;SDS011;59335;46.652;21.272;2023-08-07T17:22:05;0.53;;;0.53;;
71513;SDS011;59335;46.652;21.272;2023-08-07T17:25:08;1.00;;;0.50;;
71513;SDS011;59335;46.652;21.272;2023-08-07T17:28:11;1.67;;;0.80;;
71513;SDS011;59335;46.652;21.272;2023-08-07T17:31:14;1.25;;;0.70;;
71513;SDS011;59335;46.652;21.272;2023-08-07T17:34:17;1.05;;;0.80;;
71513;SDS011;59335;46.652;21.272;2023-08-07T17:37:20;1.00;;;0.67;;
71513;SDS011;59335;46.652;21.272;2023-08-07T17:40:23;1.65;;;0.60;;
71513;SDS011;59335;46.652;21.272;2023-08-07T17:43:26;0.98;;;0.60;;
71513;SDS011;59335;46.652;21.272;2023-08-07T17:46:29;0.68;;;0.60;;
71513;SDS011;59335;46.652;21.272;2023-08-07T17:49:35;0.88;;;0.68;;
71513;SDS011;59335;46.652;21.272;2023-08-07T17:52:40;0.83;;;0.40;;
71513;SDS011;59335;46.652;21.272;2023-08-07T17:55:43;0.65;;;0.50;;
71513;SDS011;59335;46.652;21.272;2023-08-07T17:58:49;0.52;;;0.50;;
71513;SDS011;59335;46.652;21.272;2023-08-07T18:01:54;1.20;;;0.60;;
71513;SDS011;59335;46.652;21.272;2023-08-07T18:04:57;1.10;;;0.70;;
71513;SDS011;59335;46.652;21.272;2023-08-07T18:08:00;0.60;;;0.40;;
71513;SDS011;59335;46.652;21.272;2023-08-07T18:11:04;1.00;;;0.60;;
71513;SDS011;59335;46.652;21.272;2023-08-07T18:14:07;0.60;;;0.57;;